Time;durP1;ratioP1;P1;durP2;ratioP2;P2;SDS_P1;SDS_P2;PMS_P1;PMS_P2;Temp;Humidity;BMP_temperature;BMP_pressure;BME280_temperature;BME280_humidity;BME280_pressure;Samples;Min_cycle;Max_cycle;Signal;HPM_P1;HPM_P2
2021/12/01 00:00:52;;;;;;;13.70;4.70;;;;;;;2.19;77.44;96989.14;103054;1317;98768;-71
2021/12/01 00:03:22;;;;;;;16.40;4.50;;;;;;;2.21;77.33;96997.66;103015;1317;113006;-70
2021/12/01 00:05:53;;;;;;;15.20;5.20;;;;;;;2.21;77.25;96997.18;103046;1316;99266;-70
2021/12/01 00:08:22;;;;;;;12.10;4.50;;;;;;;2.22;77.34;96996.90;103033;1313;107977;-72
2021/12/01 00:10:50;;;;;;;16.00;4.70;;;;;;;2.25;77.69;97000.45;103008;1316;99249;-70
2021/12/01 00:13:21;;;;;;;13.10;4.80;;;;;;;2.25;77.29;97005.81;103116;1316;97217;-71
2021/12/01 00:15:51;;;;;;;13.40;4.70;;;;;;;2.28;77.37;97008.91;103107;1316;111990;-71
2021/12/01 00:18:21;;;;;;;13.60;4.60;;;;;;;2.28;77.43;97005.03;103039;1316;97597;-70
2021/12/01 00:20:49;;;;;;;17.60;4.50;;;;;;;2.28;77.44;97009.98;102846;1319;108963;-70
2021/12/01 00:23:17;;;;;;;14.40;4.40;;;;;;;2.26;77.38;97014.15;102888;1322;99248;-71
2021/12/01 00:25:47;;;;;;;14.20;4.90;;;;;;;2.25;77.52;97011.77;103086;1316;99262;-70
2021/12/01 00:28:16;;;;;;;13.00;4.20;;;;;;;2.25;77.17;97014.37;103054;1317;112524;-71
2021/12/01 00:30:45;;;;;;;17.20;5.60;;;;;;;2.25;77.35;97015.23;103013;1316;98990;-71
2021/12/01 00:33:22;;;;;;;13.40;4.20;;;;;;;2.26;77.49;97025.51;102984;1316;107839;-69
2021/12/01 00:35:56;;;;;;;14.60;4.50;;;;;;;2.26;77.50;97029.85;103047;1316;99647;-70
2021/12/01 00:38:25;;;;;;;18.90;4.70;;;;;;;2.27;77.24;97026.14;103066;1316;99229;-70
2021/12/01 00:40:53;;;;;;;15.10;4.50;;;;;;;2.27;77.31;97038.70;102870;1319;111363;-71
2021/12/01 00:43:25;;;;;;;13.90;4.80;;;;;;;2.25;77.61;97039.92;103002;1316;99104;-70
2021/12/01 00:45:56;;;;;;;15.70;4.70;;;;;;;2.23;77.42;97034.63;103061;1316;107849;-70
2021/12/01 00:48:26;;;;;;;12.20;4.00;;;;;;;2.21;77.24;97045.41;103134;1314;99464;-71
2021/12/01 00:50:54;;;;;;;15.00;4.10;;;;;;;2.20;77.49;97057.02;102966;1318;99339;-69
2021/12/01 00:53:22;;;;;;;11.70;3.90;;;;;;;2.20;77.39;97059.84;103131;1313;112914;-70
2021/12/01 00:55:52;;;;;;;16.40;5.40;;;;;;;2.19;77.36;97062.52;103143;1317;99416;-70
2021/12/01 00:58:21;;;;;;;15.90;4.70;;;;;;;2.17;77.29;97061.09;103074;1316;108565;-69
2021/12/01 01:00:50;;;;;;;14.60;4.80;;;;;;;2.16;77.44;97062.61;103186;1319;99221;-69
2021/12/01 01:03:19;;;;;;;13.40;4.70;;;;;;;2.14;77.70;97065.33;103231;1317;97996;-70
2021/12/01 01:05:49;;;;;;;12.80;4.20;;;;;;;2.14;77.57;97069.21;103071;1316;113892;-70
2021/12/01 01:08:19;;;;;;;14.00;4.30;;;;;;;2.15;77.53;97073.87;103016;1316;99664;-70
2021/12/01 01:16:24;;;;;;;14.50;5.10;;;;;;;2.17;77.54;97093.28;103012;1317;97968;-70
2021/12/01 01:19:04;;;;;;;15.70;4.90;;;;;;;2.18;77.77;97100.91;103050;1316;112961;-70
2021/12/01 01:21:38;;;;;;;16.80;5.50;;;;;;;2.18;77.71;97111.42;102970;1320;99335;-69
2021/12/01 01:24:07;;;;;;;12.60;4.80;;;;;;;2.17;77.50;97115.81;103087;1316;107956;-70
2021/12/01 01:26:36;;;;;;;15.40;5.40;;;;;;;2.17;77.52;97122.52;103046;1315;100017;-70
2021/12/01 01:29:06;;;;;;;18.10;5.90;;;;;;;2.18;77.80;97128.91;103078;1316;99341;-71
2021/12/01 01:31:35;;;;;;;16.50;5.10;;;;;;;2.18;77.51;97133.44;103033;1316;112887;-70
2021/12/01 01:34:05;;;;;;;15.50;5.20;;;;;;;2.19;77.55;97132.83;103093;1316;99377;-71
2021/12/01 01:36:33;;;;;;;15.60;5.10;;;;;;;2.19;77.60;97132.52;103073;1320;107555;-70
2021/12/01 01:39:01;;;;;;;20.50;6.10;;;;;;;2.19;77.85;97145.06;103083;1315;100074;-70
2021/12/01 01:41:29;;;;;;;21.20;6.30;;;;;;;2.17;77.84;97142.92;103062;1316;99875;-69
2021/12/01 01:43:59;;;;;;;18.90;5.80;;;;;;;2.16;77.45;97152.60;103045;1321;112909;-70
2021/12/01 01:46:34;;;;;;;16.40;5.40;;;;;;;2.16;77.82;97157.73;103074;1316;99283;-70
2021/12/01 01:49:18;;;;;;;17.30;5.80;;;;;;;2.15;77.76;97155.66;103110;1317;105505;-71
2021/12/01 01:51:48;;;;;;;17.00;6.40;;;;;;;2.15;77.78;97176.69;103097;1316;99287;-70
2021/12/01 01:54:17;;;;;;;15.50;5.90;;;;;;;2.13;77.69;97181.02;103076;1317;99220;-70
2021/12/01 01:56:45;;;;;;;19.00;6.70;;;;;;;2.11;77.50;97185.84;103072;1319;112682;-70
2021/12/01 01:59:13;;;;;;;18.00;5.90;;;;;;;2.11;77.93;97193.55;103114;1320;99304;-70
2021/12/01 02:04:16;;;;;;;13.80;4.70;;;;;;;2.11;77.53;97198.83;103115;1317;99345;-69
2021/12/01 02:06:47;;;;;;;;;;;;;;;2.09;77.73;97199.64;103313;1320;97500;-70
2021/12/01 02:09:21;;;;;;;12.30;4.70;;;;;;;2.07;77.69;97202.91;103740;1315;113387;-71
2021/12/01 02:11:52;;;;;;;;;;;;;;;2.08;77.68;97211.76;103013;1320;99372;-71
2021/12/01 02:14:20;;;;;;;14.40;5.00;;;;;;;2.07;77.75;97210.20;103183;1316;107681;-71
2021/12/01 02:16:49;;;;;;;15.20;4.60;;;;;;;2.09;77.79;97215.69;102928;1322;99388;-70
2021/12/01 02:19:17;;;;;;;16.90;4.60;;;;;;;2.12;77.73;97216.24;103160;1321;99842;-71
2021/12/01 02:21:46;;;;;;;13.30;4.40;;;;;;;2.12;77.67;97220.04;103107;1316;113399;-70
2021/12/01 02:24:17;;;;;;;15.70;4.20;;;;;;;2.15;77.86;97217.09;103108;1316;99361;-71
2021/12/01 02:26:49;;;;;;;14.30;4.40;;;;;;;2.17;77.75;97227.77;103220;1316;107914;-71
2021/12/01 02:29:23;;;;;;;15.00;4.70;;;;;;;2.18;77.68;97236.29;103193;1316;99346;-70
2021/12/01 02:31:52;;;;;;;;;;;;;;;2.19;77.99;97234.77;103248;1320;99236;-74
2021/12/01 02:34:23;;;;;;;18.90;4.50;;;;;;;2.20;77.68;97245.06;103164;1317;113339;-70
2021/12/01 02:36:56;;;;;;;14.70;4.00;;;;;;;2.22;77.71;97255.23;103138;1320;99846;-70
2021/12/01 02:39:25;;;;;;;13.80;4.00;;;;;;;2.24;77.62;97262.08;103175;1317;107848;-70
2021/12/01 02:41:58;;;;;;;10.60;4.20;;;;;;;2.26;77.79;97269.13;102980;1317;99233;-71
2021/12/01 02:44:28;;;;;;;9.20;3.70;;;;;;;2.29;77.73;97272.64;103146;1317;99302;-69
2021/12/01 02:46:56;;;;;;;13.20;4.30;;;;;;;2.28;77.96;97277.91;103242;1315;113059;-70
2021/12/01 02:49:25;;;;;;;11.40;3.80;;;;;;;2.30;77.69;97288.95;103094;1317;99244;-71
2021/12/01 02:51:56;;;;;;;10.50;3.90;;;;;;;2.32;77.78;97293.78;102279;1320;1182153;-69
2021/12/01 02:54:25;;;;;;;11.80;4.40;;;;;;;2.33;77.55;97300.29;103078;1317;99363;-70
2021/12/01 02:56:55;;;;;;;15.50;3.90;;;;;;;2.34;77.72;97308.64;103159;1322;99310;-70
2021/12/01 02:59:25;;;;;;;10.40;3.10;;;;;;;2.34;77.95;97319.81;103215;1322;113593;-69
2021/12/01 03:01:54;;;;;;;10.50;3.90;;;;;;;2.33;77.77;97320.25;103185;1317;99085;-70
2021/12/01 03:04:24;;;;;;;12.40;3.30;;;;;;;2.32;77.86;97330.69;103007;1314;107675;-70
2021/12/01 03:06:53;;;;;;;8.80;3.20;;;;;;;2.28;77.38;97331.77;103193;1315;96620;-71
2021/12/01 03:09:22;;;;;;;11.50;3.60;;;;;;;2.25;77.68;97339.15;103107;1317;96757;-70
2021/12/01 03:11:50;;;;;;;12.90;3.50;;;;;;;2.22;77.61;97337.45;103145;1317;113449;-70
2021/12/01 03:14:20;;;;;;;12.50;3.40;;;;;;;2.18;77.72;97341.17;103120;1316;100284;-69
2021/12/01 03:16:51;;;;;;;8.80;2.90;;;;;;;2.16;77.69;97348.98;103092;1317;107773;-69
2021/12/01 03:19:19;;;;;;;8.00;2.70;;;;;;;2.15;77.87;97361.52;102927;1318;99424;-70
2021/12/01 03:21:48;;;;;;;8.10;3.00;;;;;;;2.14;77.72;97360.52;102946;1317;99355;-69
2021/12/01 03:24:16;;;;;;;11.00;3.40;;;;;;;2.14;77.55;97364.23;103010;1317;113322;-70
2021/12/01 03:26:44;;;;;;;8.10;3.40;;;;;;;2.13;77.48;97366.32;103050;1316;98075;-71
2021/12/01 03:29:14;;;;;;;10.40;3.50;;;;;;;2.14;77.67;97373.67;103064;1320;108408;-70
2021/12/01 03:31:43;;;;;;;16.90;5.80;;;;;;;2.14;77.66;97377.11;103034;1321;99351;-70
2021/12/01 03:34:12;;;;;;;19.70;5.50;;;;;;;2.14;77.62;97379.06;103037;1320;99251;-70
2021/12/01 03:36:40;;;;;;;14.30;4.80;;;;;;;2.14;77.57;97381.70;102808;1317;113625;-69
2021/12/01 03:39:08;;;;;;;15.20;5.20;;;;;;;2.14;77.74;97380.30;103063;1316;99246;-71
2021/12/01 03:41:36;;;;;;;15.70;5.00;;;;;;;2.14;77.63;97386.78;103067;1316;106048;-70
2021/12/01 03:44:05;;;;;;;13.00;5.10;;;;;;;2.14;77.56;97395.15;103054;1316;99318;-70
2021/12/01 03:46:34;;;;;;;16.80;5.50;;;;;;;2.13;77.72;97393.98;102980;1316;97798;-71
2021/12/01 03:49:03;;;;;;;17.60;5.10;;;;;;;2.13;77.81;97398.02;103046;1320;112859;-71
2021/12/01 03:51:31;;;;;;;15.90;5.20;;;;;;;2.13;77.83;97399.08;103062;1316;99345;-71
2021/12/01 03:53:59;;;;;;;13.60;5.70;;;;;;;2.13;77.68;97410.27;103055;1320;107936;-71
2021/12/01 03:56:26;;;;;;;15.10;5.50;;;;;;;2.13;77.92;97412.54;103030;1316;98439;-70
2021/12/01 03:58:54;;;;;;;14.60;5.00;;;;;;;2.12;77.91;97419.21;103231;1316;100359;-71
2021/12/01 04:01:23;;;;;;;14.50;5.10;;;;;;;2.12;77.82;97417.86;103065;1316;112900;-71
2021/12/01 04:03:52;;;;;;;15.30;5.00;;;;;;;2.12;77.58;97429.20;103135;1316;96561;-70
2021/12/01 04:06:19;;;;;;;14.20;5.00;;;;;;;2.11;77.60;97428.40;103173;1317;107943;-70
2021/12/01 04:08:47;;;;;;;12.30;4.60;;;;;;;2.10;77.60;97431.05;103161;1316;97916;-70
2021/12/01 04:11:17;;;;;;;13.70;4.80;;;;;;;2.10;77.58;97437.89;103167;1316;99374;-70
2021/12/01 04:13:45;;;;;;;12.80;4.30;;;;;;;2.09;77.53;97439.88;103206;1317;113628;-70
2021/12/01 04:16:14;;;;;;;9.80;3.90;;;;;;;2.07;77.46;97445.03;103158;1316;96551;-70
2021/12/01 04:18:43;;;;;;;11.60;3.80;;;;;;;2.04;77.90;97451.36;103175;1317;108488;-71
2021/12/01 04:21:12;;;;;;;8.00;3.70;;;;;;;2.00;77.68;97454.07;103190;1321;98116;-70
2021/12/01 04:23:39;;;;;;;12.20;3.20;;;;;;;2.00;77.57;97459.15;103233;1316;99217;-69
2021/12/01 04:26:12;;;;;;;7.80;3.50;;;;;;;2.00;77.77;97466.89;102962;1323;112785;-70
2021/12/01 04:28:41;;;;;;;9.50;3.60;;;;;;;1.99;77.69;97476.73;103114;1317;99763;-70
2021/12/01 04:31:09;;;;;;;13.40;3.90;;;;;;;1.98;77.53;97478.34;103215;1317;107692;-71
2021/12/01 04:33:36;;;;;;;8.00;3.40;;;;;;;1.98;77.61;97481.15;103160;1316;99277;-70
2021/12/01 04:36:04;;;;;;;8.00;3.50;;;;;;;1.99;77.68;97489.14;103253;1316;99222;-71
2021/12/01 04:38:32;;;;;;;9.30;3.70;;;;;;;1.99;77.53;97487.23;103182;1319;112891;-70
2021/12/01 04:41:01;;;;;;;9.50;3.40;;;;;;;1.97;77.74;97487.33;103125;1320;101298;-70
2021/12/01 04:43:29;;;;;;;13.40;3.70;;;;;;;1.97;77.92;97489.79;103155;1316;107516;-71
2021/12/01 04:46:00;;;;;;;11.10;3.40;;;;;;;1.96;77.67;97485.80;103042;1320;98098;-71
2021/12/01 04:48:29;;;;;;;10.80;3.20;;;;;;;1.97;77.66;97481.77;103039;1317;97850;-71
2021/12/01 04:51:00;;;;;;;14.30;3.50;;;;;;;1.95;77.62;97490.76;103229;1316;112775;-71
2021/12/01 04:53:27;;;;;;;14.00;3.30;;;;;;;1.95;77.35;97497.04;103295;1321;99247;-71
2021/12/01 04:55:55;;;;;;;14.70;4.10;;;;;;;1.96;77.75;97502.29;103123;1316;107793;-70
2021/12/01 04:58:24;;;;;;;11.50;4.10;;;;;;;1.96;77.76;97511.33;103010;1320;99347;-70
2021/12/01 05:00:52;;;;;;;14.40;4.30;;;;;;;1.98;77.51;97519.27;103042;1316;99285;-71
2021/12/01 05:03:21;;;;;;;11.30;3.70;;;;;;;1.99;77.84;97528.09;103215;1317;112918;-72
2021/12/01 05:05:51;;;;;;;10.30;3.70;;;;;;;2.01;77.86;97529.52;103200;1317;99218;-70
2021/12/01 05:08:20;;;;;;;12.20;4.00;;;;;;;2.03;77.85;97530.30;103055;1317;110543;-70
2021/12/01 05:10:50;;;;;;;12.80;3.90;;;;;;;2.04;78.10;97541.27;103121;1318;99406;-69
2021/12/01 05:13:18;;;;;;;10.50;4.00;;;;;;;2.06;77.75;97537.99;103168;1316;99355;-69
2021/12/01 05:15:47;;;;;;;13.00;4.40;;;;;;;2.07;78.13;97546.31;103156;1316;113382;-71
2021/12/01 05:18:15;;;;;;;13.40;4.00;;;;;;;2.09;77.81;97550.92;103220;1318;99306;-71
2021/12/01 05:20:44;;;;;;;14.20;4.20;;;;;;;2.11;77.80;97559.37;103167;1320;107876;-70
2021/12/01 05:23:15;;;;;;;13.80;3.80;;;;;;;2.12;77.76;97560.89;102934;1318;99247;-70
2021/12/01 05:25:46;;;;;;;14.60;4.10;;;;;;;2.14;77.72;97570.73;102988;1319;99950;-70
2021/12/01 05:28:16;;;;;;;10.50;4.40;;;;;;;2.14;77.58;97572.30;103179;1320;113749;-69
2021/12/01 05:30:45;;;;;;;9.40;3.60;;;;;;;2.15;77.99;97577.17;103045;1317;99206;-69
2021/12/01 05:33:16;;;;;;;13.70;4.20;;;;;;;2.14;77.65;97580.33;102980;1316;108485;-71
2021/12/01 05:35:47;;;;;;;11.70;4.20;;;;;;;2.13;78.01;97591.78;103058;1316;99316;-70
2021/12/01 05:38:16;;;;;;;12.90;4.60;;;;;;;2.11;77.81;97596.80;103067;1317;96660;-71
2021/12/01 05:40:50;;;;;;;11.90;4.20;;;;;;;2.09;77.91;97611.95;103035;1316;111434;-70
2021/12/01 05:43:19;;;;;;;12.10;4.10;;;;;;;2.08;77.59;97613.59;103078;1322;99339;-69
2021/12/01 05:45:50;;;;;;;10.90;4.20;;;;;;;2.06;77.75;97622.40;102938;1317;107838;-71
2021/12/01 05:48:18;;;;;;;11.30;4.00;;;;;;;2.05;77.52;97627.92;102973;1320;98361;-70
2021/12/01 05:50:45;;;;;;;10.70;3.70;;;;;;;2.02;77.70;97628.61;102986;1317;99262;-71
2021/12/01 05:53:13;;;;;;;9.40;3.90;;;;;;;2.00;77.71;97637.13;102977;1322;113502;-71
2021/12/01 05:55:43;;;;;;;8.70;3.80;;;;;;;1.98;77.69;97643.23;103051;1316;99372;-70
2021/12/01 05:58:10;;;;;;;11.40;3.50;;;;;;;1.97;77.86;97646.96;102995;1316;107518;-71
2021/12/01 06:00:39;;;;;;;8.90;3.40;;;;;;;1.96;77.71;97652.42;103004;1317;99375;-69
2021/12/01 06:03:07;;;;;;;13.70;4.00;;;;;;;1.95;77.68;97660.00;103022;1316;99247;-70
2021/12/01 06:05:36;;;;;;;8.10;3.50;;;;;;;1.94;77.92;97662.52;102927;1316;112919;-69
2021/12/01 06:08:05;;;;;;;10.40;4.10;;;;;;;1.93;77.72;97662.38;102877;1316;99264;-69
2021/12/01 06:10:33;;;;;;;13.50;4.20;;;;;;;1.93;77.61;97663.59;103054;1316;107763;-70
2021/12/01 06:13:03;;;;;;;10.20;4.20;;;;;;;1.94;77.97;97675.60;102704;1317;99298;-72
2021/12/01 06:15:31;;;;;;;10.40;4.20;;;;;;;1.97;77.55;97678.13;102851;1316;99248;-70
2021/12/01 06:17:59;;;;;;;14.00;5.40;;;;;;;1.97;77.71;97677.41;102778;1316;113028;-70
2021/12/01 06:20:27;;;;;;;18.00;5.70;;;;;;;1.97;77.57;97680.16;102974;1316;96664;-71
2021/12/01 06:22:55;;;;;;;11.50;4.40;;;;;;;1.97;77.73;97685.94;102896;1319;107842;-70
2021/12/01 06:25:23;;;;;;;12.30;4.40;;;;;;;1.96;77.52;97683.92;103039;1319;96621;-69
2021/12/01 06:27:55;;;;;;;12.30;5.30;;;;;;;1.95;77.93;97687.10;102957;1316;99764;-70
2021/12/01 06:30:25;;;;;;;14.60;5.20;;;;;;;1.92;77.91;97688.47;103036;1317;114302;-69
2021/12/01 06:32:53;;;;;;;18.00;5.50;;;;;;;1.92;77.81;97692.16;103093;1317;99974;-70
2021/12/01 06:35:21;;;;;;;15.50;5.30;;;;;;;1.90;77.67;97692.27;103050;1317;107727;-70
2021/12/01 06:37:50;;;;;;;11.30;4.40;;;;;;;1.90;77.80;97690.88;103048;1317;99116;-70
2021/12/01 06:40:18;;;;;;;13.10;5.00;;;;;;;1.90;77.74;97695.77;103027;1317;96622;-71
2021/12/01 06:42:47;;;;;;;9.70;4.00;;;;;;;1.90;77.71;97692.60;103039;1316;112971;-70
2021/12/01 06:45:16;;;;;;;16.40;5.50;;;;;;;1.91;77.83;97689.58;102941;1315;99352;-72
2021/12/01 06:47:45;;;;;;;13.10;5.60;;;;;;;1.92;77.93;97689.73;102982;1316;107524;-71
2021/12/01 06:50:15;;;;;;;15.20;6.30;;;;;;;1.91;77.67;97690.64;103074;1316;99119;-71
2021/12/01 06:52:44;;;;;;;16.30;5.60;;;;;;;1.91;77.86;97692.20;102764;1321;96704;-71
2021/12/01 06:55:14;;;;;;;14.40;5.30;;;;;;;1.91;77.77;97691.88;103117;1317;112866;-73
2021/12/01 06:57:42;;;;;;;14.80;5.40;;;;;;;1.93;77.76;97694.71;103090;1315;99261;-71
2021/12/01 07:00:18;;;;;;;11.70;4.50;;;;;;;1.96;77.77;97690.77;103114;1317;107958;-71
2021/12/01 07:02:47;;;;;;;13.40;4.80;;;;;;;1.98;77.81;97697.91;103099;1316;99243;-71
2021/12/01 07:05:16;;;;;;;15.40;6.10;;;;;;;1.99;77.90;97707.48;103073;1316;99262;-71
2021/12/01 07:07:44;;;;;;;16.90;7.10;;;;;;;2.03;78.11;97707.77;102984;1316;112886;-73
2021/12/01 07:10:15;;;;;;;16.90;6.90;;;;;;;2.03;77.73;97710.38;102915;1316;99723;-72
2021/12/01 07:12:44;;;;;;;18.10;7.70;;;;;;;2.03;77.68;97708.32;103017;1316;107855;-72
2021/12/01 07:15:16;;;;;;;17.20;7.10;;;;;;;2.00;77.46;97706.40;102913;1315;99234;-73
2021/12/01 07:17:45;;;;;;;16.20;6.60;;;;;;;1.98;77.55;97711.95;103216;1317;99258;-70
2021/12/01 07:20:15;;;;;;;17.00;6.90;;;;;;;1.93;77.71;97717.83;103056;1316;112877;-69
2021/12/01 07:22:44;;;;;;;15.60;7.40;;;;;;;1.89;77.75;97723.84;103077;1316;99281;-69
2021/12/01 07:25:13;;;;;;;18.40;8.10;;;;;;;1.87;77.54;97729.17;103041;1316;107905;-71
2021/12/01 07:27:42;;;;;;;17.60;7.60;;;;;;;1.85;77.49;97731.36;102849;1319;99296;-69
2021/12/01 07:30:12;;;;;;;17.20;7.00;;;;;;;1.85;77.62;97731.55;103047;1316;99188;-71
2021/12/01 07:32:40;;;;;;;16.60;6.90;;;;;;;1.86;77.58;97733.27;102940;1317;112151;-70
2021/12/01 07:35:10;;;;;;;16.50;7.50;;;;;;;1.84;77.70;97735.96;102906;1316;99265;-70
2021/12/01 07:37:38;;;;;;;17.80;7.90;;;;;;;1.84;77.56;97740.52;102956;1317;108172;-71
2021/12/01 07:40:06;;;;;;;17.80;7.90;;;;;;;1.83;77.57;97738.88;103002;1317;96622;-72
2021/12/01 07:42:34;;;;;;;19.10;8.00;;;;;;;1.81;77.38;97742.80;103145;1316;99245;-72
2021/12/01 07:45:07;;;;;;;18.50;8.60;;;;;;;1.81;77.57;97745.98;103009;1316;112425;-72
2021/12/01 07:47:36;;;;;;;20.40;8.40;;;;;;;1.81;77.65;97745.29;103101;1322;99826;-72
2021/12/01 07:50:05;;;;;;;17.30;7.80;;;;;;;1.79;77.48;97751.33;103053;1317;107994;-72
2021/12/01 07:52:39;;;;;;;21.20;7.70;;;;;;;1.78;77.41;97754.51;103036;1317;97985;-72
2021/12/01 07:55:08;;;;;;;14.80;6.40;;;;;;;1.76;77.54;97756.38;103054;1317;99377;-74
2021/12/01 07:57:36;;;;;;;12.40;6.40;;;;;;;1.74;77.38;97754.39;102983;1317;112930;-71
2021/12/01 08:00:08;;;;;;;14.60;6.20;;;;;;;1.75;77.63;97760.09;102944;1317;99119;-71
2021/12/01 08:02:36;;;;;;;15.20;7.00;;;;;;;1.75;77.54;97763.40;102949;1318;107939;-70
2021/12/01 08:05:10;;;;;;;14.70;6.60;;;;;;;1.74;77.37;97766.48;103020;1317;99380;-70
2021/12/01 08:07:39;;;;;;;15.50;6.70;;;;;;;1.72;77.68;97764.33;102981;1317;99201;-69
2021/12/01 08:10:14;;;;;;;15.20;6.70;;;;;;;1.72;77.75;97763.08;102973;1316;112268;-70
2021/12/01 08:12:42;;;;;;;16.10;7.00;;;;;;;1.71;77.48;97768.41;102808;1322;99277;-71
2021/12/01 08:15:10;;;;;;;18.60;7.80;;;;;;;1.69;77.63;97766.05;103034;1317;109443;-72
2021/12/01 08:17:38;;;;;;;21.90;8.70;;;;;;;1.68;77.50;97769.62;102994;1317;99255;-71
2021/12/01 08:20:07;;;;;;;20.40;9.20;;;;;;;1.66;77.85;97767.62;103152;1316;97392;-72
2021/12/01 08:22:35;;;;;;;19.80;8.80;;;;;;;1.65;77.66;97772.02;103009;1316;113049;-73
2021/12/01 08:25:04;;;;;;;21.90;9.70;;;;;;;1.67;77.31;97776.09;103080;1316;99230;-73
2021/12/01 08:27:32;;;;;;;22.00;10.10;;;;;;;1.66;77.61;97776.34;102815;1322;107885;-70
2021/12/01 08:30:00;;;;;;;19.80;8.90;;;;;;;1.66;77.42;97775.84;102964;1316;99261;-71
2021/12/01 08:32:28;;;;;;;20.60;9.10;;;;;;;1.65;77.55;97778.86;102998;1316;99251;-70
2021/12/01 08:34:56;;;;;;;19.70;10.10;;;;;;;1.66;77.56;97784.55;102866;1316;112840;-70
2021/12/01 08:37:26;;;;;;;20.50;9.90;;;;;;;1.74;77.80;97784.13;102856;1316;96971;-70
2021/12/01 08:39:55;;;;;;;21.90;9.90;;;;;;;1.82;77.33;97786.46;102685;1317;108502;-69
2021/12/01 08:42:24;;;;;;;21.80;9.30;;;;;;;1.88;77.62;97786.98;102973;1316;99419;-70
2021/12/01 08:44:53;;;;;;;22.40;10.40;;;;;;;1.93;77.67;97787.36;103230;1316;99352;-70
2021/12/01 08:47:25;;;;;;;21.00;8.90;;;;;;;2.01;77.82;97790.95;103029;1316;113470;-71
2021/12/01 08:49:53;;;;;;;21.40;9.20;;;;;;;2.03;77.49;97795.17;103036;1316;99390;-71
2021/12/01 08:52:24;;;;;;;24.30;10.00;;;;;;;2.03;77.74;97795.37;102961;1316;107879;-69
2021/12/01 08:54:53;;;;;;;20.30;8.90;;;;;;;2.02;77.52;97792.27;102972;1316;97726;-70
2021/12/01 08:57:21;;;;;;;24.00;10.40;;;;;;;2.01;77.32;97786.22;103024;1317;99148;-71
2021/12/01 08:59:50;;;;;;;22.20;10.10;;;;;;;2.00;77.61;97781.95;102874;1317;112872;-70
2021/12/01 09:02:19;;;;;;;24.20;9.40;;;;;;;1.99;77.50;97781.80;102924;1316;99963;-69
2021/12/01 09:04:50;;;;;;;21.70;10.30;;;;;;;1.98;77.35;97776.49;102963;1317;107841;-70
2021/12/01 09:07:20;;;;;;;20.50;8.90;;;;;;;1.97;77.16;97779.81;103029;1316;99384;-69
2021/12/01 09:09:48;;;;;;;21.30;9.90;;;;;;;1.97;77.22;97777.52;103058;1320;99292;-70
2021/12/01 09:12:21;;;;;;;21.80;9.40;;;;;;;2.00;77.63;97783.70;103162;1316;112962;-72
2021/12/01 09:14:52;;;;;;;21.40;9.90;;;;;;;2.01;77.46;97782.41;103079;1322;99304;-69
2021/12/01 09:17:19;;;;;;;22.90;9.20;;;;;;;1.99;77.39;97784.10;102826;1319;107982;-70
2021/12/01 09:19:50;;;;;;;23.30;10.20;;;;;;;1.99;77.21;97789.51;103019;1316;99921;-69
2021/12/01 09:22:20;;;;;;;22.50;9.90;;;;;;;1.99;77.52;97791.13;103152;1316;99275;-74
2021/12/01 09:24:48;;;;;;;24.20;9.80;;;;;;;1.99;77.53;97789.15;103106;1316;112937;-70
2021/12/01 09:27:17;;;;;;;20.60;8.70;;;;;;;2.03;77.40;97786.79;103027;1315;99236;-70
2021/12/01 09:29:45;;;;;;;20.10;9.20;;;;;;;2.07;77.40;97784.48;103057;1315;108062;-72
2021/12/01 09:32:14;;;;;;;19.40;9.20;;;;;;;2.11;77.45;97790.57;102987;1317;99418;-72
2021/12/01 09:34:44;;;;;;;22.10;10.00;;;;;;;2.15;77.40;97792.08;103086;1322;99325;-71
2021/12/01 09:37:12;;;;;;;21.10;8.80;;;;;;;2.19;77.22;97790.98;103041;1315;113119;-70
2021/12/01 09:39:40;;;;;;;20.30;9.10;;;;;;;2.20;77.52;97794.21;103034;1316;99368;-71
2021/12/01 09:42:10;;;;;;;20.80;9.70;;;;;;;2.21;77.14;97795.73;102976;1316;107862;-69
2021/12/01 09:44:40;;;;;;;21.10;10.10;;;;;;;2.22;77.40;97802.69;102937;1316;99190;-70
2021/12/01 09:47:08;;;;;;;25.50;11.80;;;;;;;2.24;77.39;97802.73;102987;1316;97009;-69
2021/12/01 09:49:36;;;;;;;22.10;10.20;;;;;;;2.31;77.46;97801.81;102961;1316;112811;-70
2021/12/01 09:52:04;;;;;;;21.00;9.00;;;;;;;2.38;77.31;97802.94;103003;1316;99952;-71
2021/12/01 09:54:32;;;;;;;22.10;9.80;;;;;;;2.41;77.60;97804.53;103153;1316;107906;-68
2021/12/01 09:57:02;;;;;;;22.90;10.20;;;;;;;2.42;77.44;97800.64;103085;1316;99413;-70
2021/12/01 09:59:35;;;;;;;;;;;;;;;2.42;77.42;97796.64;103049;1317;99819;-70
2021/12/01 10:02:04;;;;;;;24.00;11.80;;;;;;;2.41;77.17;97797.77;103074;1317;112902;-70
2021/12/01 10:04:35;;;;;;;24.50;12.10;;;;;;;2.44;77.44;97798.41;103112;1320;97635;-71
2021/12/01 10:07:21;;;;;;;23.00;10.40;;;;;;;2.49;77.39;97793.92;103034;1320;107831;-71
2021/12/01 10:09:53;;;;;;;23.60;10.60;;;;;;;2.50;77.52;97789.98;102917;1322;99247;-70
2021/12/01 10:12:21;;;;;;;21.30;9.80;;;;;;;2.54;77.24;97786.30;103057;1316;99245;-71
2021/12/01 10:14:51;;;;;;;24.80;11.20;;;;;;;2.55;77.34;97784.96;102989;1322;112853;-70
2021/12/01 10:17:34;;;;;;;22.00;9.90;;;;;;;2.58;77.39;97779.55;103012;1316;99253;-70
2021/12/01 10:20:18;;;;;;;22.70;10.00;;;;;;;2.60;77.19;97775.25;103055;1316;108094;-71
2021/12/01 10:23:24;;;;;;;24.80;10.70;;;;;;;2.60;77.15;97773.16;102838;1316;99247;-72
2021/12/01 10:26:33;;;;;;;17.90;8.50;;;;;;;2.61;77.19;97777.44;102891;1317;99241;-68
2021/12/01 10:29:09;;;;;;;23.30;11.00;;;;;;;2.66;77.25;97777.16;102833;1321;112911;-68
2021/12/01 10:31:54;;;;;;;24.10;12.00;;;;;;;2.66;77.27;97780.84;103058;1316;99249;-69
2021/12/01 10:34:38;;;;;;;23.50;11.40;;;;;;;2.71;77.00;97779.69;103057;1317;109010;-69
2021/12/01 10:37:26;;;;;;;25.30;11.50;;;;;;;2.72;77.17;97775.77;103222;1317;96519;-70
2021/12/01 10:40:04;;;;;;;29.10;13.20;;;;;;;2.75;76.89;97772.91;103089;1317;99374;-69
2021/12/01 10:42:33;;;;;;;22.20;10.60;;;;;;;2.78;77.23;97773.95;102901;1316;112980;-70
2021/12/01 10:45:09;;;;;;;22.00;10.10;;;;;;;2.86;77.05;97778.73;102974;1315;97838;-72
2021/12/01 10:47:41;;;;;;;20.50;8.40;;;;;;;2.90;77.13;97788.10;102998;1316;106859;-68
2021/12/01 10:50:14;;;;;;;19.70;8.50;;;;;;;2.93;77.14;97782.65;102865;1320;99382;-70
2021/12/01 10:52:49;;;;;;;18.50;7.60;;;;;;;2.96;77.10;97780.40;102827;1319;149097;-72
2021/12/01 10:55:25;;;;;;;17.90;8.00;;;;;;;2.98;77.21;97776.77;102890;1316;112794;-70
2021/12/01 10:57:59;;;;;;;20.20;8.90;;;;;;;3.00;76.89;97765.26;102936;1316;98396;-69
2021/12/01 11:00:43;;;;;;;21.20;9.40;;;;;;;3.07;77.13;97757.48;102808;1317;108239;-70
2021/12/01 11:03:18;;;;;;;19.70;8.70;;;;;;;3.16;77.12;97758.48;102966;1316;99338;-70
2021/12/01 11:05:54;;;;;;;21.60;9.70;;;;;;;3.27;76.97;97750.58;102978;1315;99257;-70
2021/12/01 11:08:26;;;;;;;20.40;8.60;;;;;;;3.24;77.16;97735.02;102986;1316;112816;-70
2021/12/01 11:11:09;;;;;;;19.70;7.90;;;;;;;3.32;76.86;97734.15;103051;1316;99348;-70
2021/12/01 11:13:41;;;;;;;18.30;7.70;;;;;;;3.39;77.09;97727.77;102857;1319;107585;-68
2021/12/01 11:16:17;;;;;;;16.00;6.90;;;;;;;3.46;77.19;97721.89;102687;1322;99342;-70
2021/12/01 11:19:00;;;;;;;16.70;7.20;;;;;;;3.58;77.13;97716.55;102931;1322;96631;-71
2021/12/01 11:21:28;;;;;;;16.20;7.10;;;;;;;3.69;77.11;97713.58;102901;1316;113532;-69
2021/12/01 11:24:06;;;;;;;19.80;7.40;;;;;;;3.83;77.04;97697.05;103019;1316;97650;-70
2021/12/01 11:26:37;;;;;;;19.90;7.10;;;;;;;3.96;77.05;97675.09;102826;1317;107951;-70
2021/12/01 11:29:22;;;;;;;18.00;7.70;;;;;;;4.09;77.01;97672.46;102843;1317;100441;-69
2021/12/01 11:31:50;;;;;;;16.60;6.80;;;;;;;4.19;76.98;97667.76;102834;1319;97947;-69
2021/12/01 11:34:19;;;;;;;19.90;8.70;;;;;;;4.23;76.96;97664.85;102956;1317;113477;-69
2021/12/01 11:36:51;;;;;;;18.90;7.50;;;;;;;4.33;77.17;97661.20;102986;1317;99320;-69
2021/12/01 11:39:25;;;;;;;18.40;6.90;;;;;;;4.46;76.95;97656.04;102950;1317;107781;-69
2021/12/01 11:41:55;;;;;;;15.70;5.70;;;;;;;4.52;76.76;97655.12;103026;1316;99275;-70
2021/12/01 11:44:26;;;;;;;17.90;6.50;;;;;;;4.53;76.72;97658.54;103080;1316;99381;-69